Sunny South, Alabama
Current Conditions -  °F | °C
As of 6:15 PM on Monday 24 Nov 2014 (Local Time) from KDYA Reporting Station
Clear Clear  
Wind Chill: 55°   Ceiling: Unl
Heat Index: 55°   Visibility: 10mi
Dew Point: 41°   Wind: 3mph
Humidity: 60%   Direction: 340°NNW
Pressure: 29.97"   Gusts: NA
Location:  31.949°N, 87.5576°W
Report Text: KDYA 250015Z AUTO 34003KT 10SM CLR 13/05 A2997 RMK AO2 T01260050
Loading
Personal Weather Stations






























Interactive Weather Map New forecast layout! Learn more

10-Day Weather Forecast

Advertisements
Track Severe Weather on mobile